sensor_id;sensor_type;location;lat;lon;timestamp;P1;durP1;ratioP1;P2;durP2;ratioP2
84676;SDS011;74901;55.024;73.254;2024-03-06T00:01:21;17.73;;;7.18;;
84676;SDS011;74901;55.024;73.254;2024-03-06T00:03:50;18.17;;;7.13;;
84676;SDS011;74901;55.024;73.254;2024-03-06T00:06:19;20.13;;;7.82;;
84676;SDS011;74901;55.024;73.254;2024-03-06T00:08:48;19.77;;;7.32;;
84676;SDS011;74901;55.024;73.254;2024-03-06T00:11:17;18.85;;;7.32;;
84676;SDS011;74901;55.024;73.254;2024-03-06T00:13:48;17.70;;;6.78;;
84676;SDS011;74901;55.024;73.254;2024-03-06T00:16:16;18.08;;;7.43;;
84676;SDS011;74901;55.024;73.254;2024-03-06T00:18:46;20.17;;;6.82;;
84676;SDS011;74901;55.024;73.254;2024-03-06T00:21:15;19.75;;;6.63;;
84676;SDS011;74901;55.024;73.254;2024-03-06T00:23:44;20.10;;;7.50;;
84676;SDS011;74901;55.024;73.254;2024-03-06T00:26:13;20.75;;;7.60;;
84676;SDS011;74901;55.024;73.254;2024-03-06T00:28:42;28.73;;;9.38;;
84676;SDS011;74901;55.024;73.254;2024-03-06T00:31:12;20.83;;;7.65;;
84676;SDS011;74901;55.024;73.254;2024-03-06T00:33:40;20.92;;;7.15;;
84676;SDS011;74901;55.024;73.254;2024-03-06T00:36:09;19.40;;;7.28;;
84676;SDS011;74901;55.024;73.254;2024-03-06T00:38:38;20.83;;;6.40;;
84676;SDS011;74901;55.024;73.254;2024-03-06T00:41:07;16.98;;;6.30;;
84676;SDS011;74901;55.024;73.254;2024-03-06T00:43:36;21.63;;;6.15;;
84676;SDS011;74901;55.024;73.254;2024-03-06T00:46:05;18.85;;;6.97;;
84676;SDS011;74901;55.024;73.254;2024-03-06T00:48:36;22.40;;;6.93;;
84676;SDS011;74901;55.024;73.254;2024-03-06T00:51:05;19.35;;;7.22;;
84676;SDS011;74901;55.024;73.254;2024-03-06T00:53:34;18.88;;;6.95;;
84676;SDS011;74901;55.024;73.254;2024-03-06T00:56:03;18.42;;;7.93;;
84676;SDS011;74901;55.024;73.254;2024-03-06T00:58:33;22.73;;;8.23;;
84676;SDS011;74901;55.024;73.254;2024-03-06T01:01:01;19.67;;;7.15;;
84676;SDS011;74901;55.024;73.254;2024-03-06T01:03:31;23.20;;;8.13;;
84676;SDS011;74901;55.024;73.254;2024-03-06T01:06:01;21.70;;;6.20;;
84676;SDS011;74901;55.024;73.254;2024-03-06T01:08:30;20.52;;;7.63;;
84676;SDS011;74901;55.024;73.254;2024-03-06T01:10:59;18.70;;;7.50;;
84676;SDS011;74901;55.024;73.254;2024-03-06T01:13:28;22.90;;;8.02;;
84676;SDS011;74901;55.024;73.254;2024-03-06T01:15:56;26.58;;;8.13;;
84676;SDS011;74901;55.024;73.254;2024-03-06T01:18:25;18.90;;;7.75;;
84676;SDS011;74901;55.024;73.254;2024-03-06T01:20:54;24.25;;;7.55;;
84676;SDS011;74901;55.024;73.254;2024-03-06T01:23:25;16.67;;;7.00;;
84676;SDS011;74901;55.024;73.254;2024-03-06T01:25:54;22.27;;;7.90;;
84676;SDS011;74901;55.024;73.254;2024-03-06T01:28:22;17.23;;;7.70;;
84676;SDS011;74901;55.024;73.254;2024-03-06T01:30:52;18.25;;;7.00;;
84676;SDS011;74901;55.024;73.254;2024-03-06T01:33:21;24.80;;;8.43;;
84676;SDS011;74901;55.024;73.254;2024-03-06T01:35:49;17.73;;;6.85;;
84676;SDS011;74901;55.024;73.254;2024-03-06T01:38:18;19.38;;;6.47;;
84676;SDS011;74901;55.024;73.254;2024-03-06T01:40:49;21.17;;;7.32;;
84676;SDS011;74901;55.024;73.254;2024-03-06T01:43:21;20.25;;;8.00;;
84676;SDS011;74901;55.024;73.254;2024-03-06T01:45:51;26.30;;;8.82;;
84676;SDS011;74901;55.024;73.254;2024-03-06T01:48:21;19.23;;;6.80;;
84676;SDS011;74901;55.024;73.254;2024-03-06T01:50:56;18.05;;;6.68;;
84676;SDS011;74901;55.024;73.254;2024-03-06T01:53:26;22.77;;;7.47;;
84676;SDS011;74901;55.024;73.254;2024-03-06T01:55:59;23.60;;;6.75;;
84676;SDS011;74901;55.024;73.254;2024-03-06T01:58:30;18.83;;;6.00;;
84676;SDS011;74901;55.024;73.254;2024-03-06T02:03:28;24.35;;;7.47;;
84676;SDS011;74901;55.024;73.254;2024-03-06T02:05:59;17.10;;;7.00;;
84676;SDS011;74901;55.024;73.254;2024-03-06T02:08:30;23.10;;;7.93;;
84676;SDS011;74901;55.024;73.254;2024-03-06T02:11:01;23.60;;;8.27;;
84676;SDS011;74901;55.024;73.254;2024-03-06T02:13:30;25.52;;;9.50;;
84676;SDS011;74901;55.024;73.254;2024-03-06T02:15:59;20.98;;;7.20;;
84676;SDS011;74901;55.024;73.254;2024-03-06T02:18:28;13.95;;;5.15;;
84676;SDS011;74901;55.024;73.254;2024-03-06T02:20:59;16.90;;;6.88;;
84676;SDS011;74901;55.024;73.254;2024-03-06T02:23:27;23.27;;;9.27;;
84676;SDS011;74901;55.024;73.254;2024-03-06T02:25:56;38.00;;;14.32;;
84676;SDS011;74901;55.024;73.254;2024-03-06T02:28:25;23.52;;;8.57;;
84676;SDS011;74901;55.024;73.254;2024-03-06T02:30:54;25.05;;;8.02;;
84676;SDS011;74901;55.024;73.254;2024-03-06T02:33:23;27.63;;;9.23;;
84676;SDS011;74901;55.024;73.254;2024-03-06T02:35:55;22.45;;;8.00;;
84676;SDS011;74901;55.024;73.254;2024-03-06T02:38:26;23.58;;;8.75;;
84676;SDS011;74901;55.024;73.254;2024-03-06T02:40:55;21.60;;;9.10;;
84676;SDS011;74901;55.024;73.254;2024-03-06T02:43:24;29.98;;;9.13;;
84676;SDS011;74901;55.024;73.254;2024-03-06T02:45:53;29.00;;;11.15;;
84676;SDS011;74901;55.024;73.254;2024-03-06T02:48:22;23.15;;;8.57;;
84676;SDS011;74901;55.024;73.254;2024-03-06T02:50:51;24.23;;;8.98;;
84676;SDS011;74901;55.024;73.254;2024-03-06T02:53:20;19.20;;;7.40;;
84676;SDS011;74901;55.024;73.254;2024-03-06T02:55:50;22.15;;;8.52;;
84676;SDS011;74901;55.024;73.254;2024-03-06T02:58:19;19.20;;;7.15;;
84676;SDS011;74901;55.024;73.254;2024-03-06T03:00:48;18.88;;;8.27;;
84676;SDS011;74901;55.024;73.254;2024-03-06T03:03:17;22.30;;;9.02;;
84676;SDS011;74901;55.024;73.254;2024-03-06T03:05:46;19.98;;;8.23;;
84676;SDS011;74901;55.024;73.254;2024-03-06T03:08:15;27.35;;;9.13;;
84676;SDS011;74901;55.024;73.254;2024-03-06T03:10:43;25.60;;;7.60;;
84676;SDS011;74901;55.024;73.254;2024-03-06T03:13:14;25.40;;;9.00;;
84676;SDS011;74901;55.024;73.254;2024-03-06T03:15:43;22.98;;;7.90;;
84676;SDS011;74901;55.024;73.254;2024-03-06T03:18:13;23.85;;;8.95;;
84676;SDS011;74901;55.024;73.254;2024-03-06T03:20:42;23.83;;;8.68;;
84676;SDS011;74901;55.024;73.254;2024-03-06T03:23:11;23.05;;;7.68;;
84676;SDS011;74901;55.024;73.254;2024-03-06T03:25:42;23.20;;;6.43;;
84676;SDS011;74901;55.024;73.254;2024-03-06T03:28:11;30.88;;;9.77;;
84676;SDS011;74901;55.024;73.254;2024-03-06T03:30:41;31.58;;;9.77;;
84676;SDS011;74901;55.024;73.254;2024-03-06T03:33:11;25.52;;;9.52;;
84676;SDS011;74901;55.024;73.254;2024-03-06T03:35:40;27.08;;;9.52;;
84676;SDS011;74901;55.024;73.254;2024-03-06T03:38:09;23.65;;;8.40;;
84676;SDS011;74901;55.024;73.254;2024-03-06T03:40:38;21.63;;;9.05;;
84676;SDS011;74901;55.024;73.254;2024-03-06T03:43:06;16.95;;;7.63;;
84676;SDS011;74901;55.024;73.254;2024-03-06T03:45:35;19.73;;;7.68;;
84676;SDS011;74901;55.024;73.254;2024-03-06T03:48:06;21.08;;;8.48;;
84676;SDS011;74901;55.024;73.254;2024-03-06T03:50:35;21.33;;;9.18;;
84676;SDS011;74901;55.024;73.254;2024-03-06T03:53:04;23.13;;;9.65;;
84676;SDS011;74901;55.024;73.254;2024-03-06T03:55:33;22.58;;;8.63;;
84676;SDS011;74901;55.024;73.254;2024-03-06T03:58:02;30.15;;;9.10;;
84676;SDS011;74901;55.024;73.254;2024-03-06T04:00:33;25.08;;;8.95;;
84676;SDS011;74901;55.024;73.254;2024-03-06T04:03:01;25.52;;;8.77;;
84676;SDS011;74901;55.024;73.254;2024-03-06T04:08:00;19.10;;;7.18;;
84676;SDS011;74901;55.024;73.254;2024-03-06T04:10:31;20.40;;;8.25;;
84676;SDS011;74901;55.024;73.254;2024-03-06T04:13:00;22.70;;;8.15;;
84676;SDS011;74901;55.024;73.254;2024-03-06T04:15:30;24.67;;;9.45;;
84676;SDS011;74901;55.024;73.254;2024-03-06T04:17:59;22.48;;;8.95;;
84676;SDS011;74901;55.024;73.254;2024-03-06T04:20:28;31.20;;;10.50;;
84676;SDS011;74901;55.024;73.254;2024-03-06T04:22:58;26.90;;;8.35;;
84676;SDS011;74901;55.024;73.254;2024-03-06T04:25:27;24.98;;;9.95;;
84676;SDS011;74901;55.024;73.254;2024-03-06T04:27:56;23.60;;;9.50;;
84676;SDS011;74901;55.024;73.254;2024-03-06T04:30:24;23.00;;;8.40;;
84676;SDS011;74901;55.024;73.254;2024-03-06T04:32:53;18.67;;;8.50;;
84676;SDS011;74901;55.024;73.254;2024-03-06T04:35:22;20.02;;;8.05;;
84676;SDS011;74901;55.024;73.254;2024-03-06T04:37:51;23.13;;;8.75;;
84676;SDS011;74901;55.024;73.254;2024-03-06T04:40:22;26.58;;;8.38;;
84676;SDS011;74901;55.024;73.254;2024-03-06T04:42:51;21.13;;;8.25;;
84676;SDS011;74901;55.024;73.254;2024-03-06T04:45:20;26.83;;;9.77;;
84676;SDS011;74901;55.024;73.254;2024-03-06T04:50:17;26.50;;;8.60;;
84676;SDS011;74901;55.024;73.254;2024-03-06T04:52:46;29.95;;;9.80;;
84676;SDS011;74901;55.024;73.254;2024-03-06T04:55:15;24.73;;;9.52;;
84676;SDS011;74901;55.024;73.254;2024-03-06T04:57:50;24.30;;;6.15;;
84676;SDS011;74901;55.024;73.254;2024-03-06T05:00:19;20.95;;;8.13;;
84676;SDS011;74901;55.024;73.254;2024-03-06T05:02:48;20.13;;;7.60;;
84676;SDS011;74901;55.024;73.254;2024-03-06T05:05:17;22.33;;;8.63;;
84676;SDS011;74901;55.024;73.254;2024-03-06T05:07:46;28.60;;;9.73;;
84676;SDS011;74901;55.024;73.254;2024-03-06T05:10:15;24.63;;;8.98;;
84676;SDS011;74901;55.024;73.254;2024-03-06T05:12:44;23.17;;;8.65;;
84676;SDS011;74901;55.024;73.254;2024-03-06T05:15:14;22.77;;;8.30;;
84676;SDS011;74901;55.024;73.254;2024-03-06T05:17:45;22.85;;;8.80;;
84676;SDS011;74901;55.024;73.254;2024-03-06T05:20:14;23.88;;;9.77;;
84676;SDS011;74901;55.024;73.254;2024-03-06T05:22:44;22.85;;;8.73;;
84676;SDS011;74901;55.024;73.254;2024-03-06T05:25:12;24.10;;;9.90;;
84676;SDS011;74901;55.024;73.254;2024-03-06T05:27:41;24.35;;;8.63;;
84676;SDS011;74901;55.024;73.254;2024-03-06T05:30:10;28.23;;;10.57;;
84676;SDS011;74901;55.024;73.254;2024-03-06T05:32:42;30.38;;;8.93;;
84676;SDS011;74901;55.024;73.254;2024-03-06T05:35:13;20.17;;;8.02;;
84676;SDS011;74901;55.024;73.254;2024-03-06T05:37:42;20.73;;;8.43;;
84676;SDS011;74901;55.024;73.254;2024-03-06T05:40:11;25.63;;;8.50;;
84676;SDS011;74901;55.024;73.254;2024-03-06T05:45:09;24.75;;;9.93;;
84676;SDS011;74901;55.024;73.254;2024-03-06T05:47:38;22.88;;;8.82;;
84676;SDS011;74901;55.024;73.254;2024-03-06T05:50:09;22.10;;;8.73;;
84676;SDS011;74901;55.024;73.254;2024-03-06T05:52:38;30.63;;;10.63;;
84676;SDS011;74901;55.024;73.254;2024-03-06T05:55:07;27.17;;;9.45;;
84676;SDS011;74901;55.024;73.254;2024-03-06T05:57:36;30.55;;;11.43;;
84676;SDS011;74901;55.024;73.254;2024-03-06T06:00:05;25.67;;;10.50;;
84676;SDS011;74901;55.024;73.254;2024-03-06T06:02:37;23.15;;;10.45;;
84676;SDS011;74901;55.024;73.254;2024-03-06T06:05:06;24.92;;;8.95;;
84676;SDS011;74901;55.024;73.254;2024-03-06T06:07:37;24.90;;;9.77;;
84676;SDS011;74901;55.024;73.254;2024-03-06T06:10:06;24.95;;;9.13;;
84676;SDS011;74901;55.024;73.254;2024-03-06T06:12:36;24.23;;;9.15;;
84676;SDS011;74901;55.024;73.254;2024-03-06T06:15:05;25.77;;;9.85;;
84676;SDS011;74901;55.024;73.254;2024-03-06T06:17:35;26.55;;;9.02;;
84676;SDS011;74901;55.024;73.254;2024-03-06T06:20:06;17.77;;;8.02;;
84676;SDS011;74901;55.024;73.254;2024-03-06T06:22:42;23.50;;;9.73;;
84676;SDS011;74901;55.024;73.254;2024-03-06T06:25:11;23.42;;;9.77;;
84676;SDS011;74901;55.024;73.254;2024-03-06T06:27:41;25.80;;;9.38;;
84676;SDS011;74901;55.024;73.254;2024-03-06T06:30:10;28.58;;;9.75;;
84676;SDS011;74901;55.024;73.254;2024-03-06T06:32:40;23.50;;;8.43;;
84676;SDS011;74901;55.024;73.254;2024-03-06T06:35:09;23.63;;;9.38;;
84676;SDS011;74901;55.024;73.254;2024-03-06T06:37:39;24.77;;;8.55;;
84676;SDS011;74901;55.024;73.254;2024-03-06T06:40:10;24.55;;;8.80;;
84676;SDS011;74901;55.024;73.254;2024-03-06T06:42:44;22.75;;;8.43;;
84676;SDS011;74901;55.024;73.254;2024-03-06T06:45:15;23.48;;;9.10;;
84676;SDS011;74901;55.024;73.254;2024-03-06T06:47:44;19.63;;;7.50;;
84676;SDS011;74901;55.024;73.254;2024-03-06T06:50:14;25.23;;;8.57;;
84676;SDS011;74901;55.024;73.254;2024-03-06T06:55:13;23.90;;;9.18;;
84676;SDS011;74901;55.024;73.254;2024-03-06T06:57:42;20.85;;;8.15;;
84676;SDS011;74901;55.024;73.254;2024-03-06T07:00:11;22.23;;;8.68;;
84676;SDS011;74901;55.024;73.254;2024-03-06T07:02:42;25.20;;;8.88;;
84676;SDS011;74901;55.024;73.254;2024-03-06T07:05:11;21.33;;;9.48;;
84676;SDS011;74901;55.024;73.254;2024-03-06T07:07:40;21.55;;;8.88;;
84676;SDS011;74901;55.024;73.254;2024-03-06T07:10:09;25.05;;;8.80;;
84676;SDS011;74901;55.024;73.254;2024-03-06T07:12:40;23.38;;;8.98;;
84676;SDS011;74901;55.024;73.254;2024-03-06T07:15:09;22.60;;;8.57;;
84676;SDS011;74901;55.024;73.254;2024-03-06T07:17:38;21.17;;;9.07;;
84676;SDS011;74901;55.024;73.254;2024-03-06T07:20:07;27.50;;;9.35;;
84676;SDS011;74901;55.024;73.254;2024-03-06T07:22:38;24.85;;;10.93;;
84676;SDS011;74901;55.024;73.254;2024-03-06T07:25:06;29.45;;;10.40;;
84676;SDS011;74901;55.024;73.254;2024-03-06T07:27:35;30.35;;;10.32;;
84676;SDS011;74901;55.024;73.254;2024-03-06T07:30:06;25.13;;;8.73;;
84676;SDS011;74901;55.024;73.254;2024-03-06T07:32:37;28.25;;;9.75;;
84676;SDS011;74901;55.024;73.254;2024-03-06T07:35:06;22.85;;;9.18;;
84676;SDS011;74901;55.024;73.254;2024-03-06T07:37:35;24.42;;;9.60;;
84676;SDS011;74901;55.024;73.254;2024-03-06T07:40:04;21.98;;;9.48;;
84676;SDS011;74901;55.024;73.254;2024-03-06T07:42:35;23.63;;;9.70;;
84676;SDS011;74901;55.024;73.254;2024-03-06T07:45:07;25.85;;;9.20;;
84676;SDS011;74901;55.024;73.254;2024-03-06T07:47:36;22.10;;;9.30;;
84676;SDS011;74901;55.024;73.254;2024-03-06T07:50:10;27.25;;;8.95;;
84676;SDS011;74901;55.024;73.254;2024-03-06T07:52:44;22.48;;;9.07;;
84676;SDS011;74901;55.024;73.254;2024-03-06T07:55:13;23.35;;;9.07;;
84676;SDS011;74901;55.024;73.254;2024-03-06T07:57:44;27.20;;;10.43;;
84676;SDS011;74901;55.024;73.254;2024-03-06T08:00:15;27.50;;;10.73;;
84676;SDS011;74901;55.024;73.254;2024-03-06T08:02:45;27.30;;;10.02;;
84676;SDS011;74901;55.024;73.254;2024-03-06T08:05:17;24.30;;;10.18;;
84676;SDS011;74901;55.024;73.254;2024-03-06T08:07:47;27.60;;;11.00;;
84676;SDS011;74901;55.024;73.254;2024-03-06T08:10:16;27.13;;;10.60;;
84676;SDS011;74901;55.024;73.254;2024-03-06T08:12:45;25.50;;;10.32;;
84676;SDS011;74901;55.024;73.254;2024-03-06T08:15:17;21.42;;;8.73;;
84676;SDS011;74901;55.024;73.254;2024-03-06T08:17:50;26.98;;;9.40;;
84676;SDS011;74901;55.024;73.254;2024-03-06T08:20:19;27.27;;;10.95;;
84676;SDS011;74901;55.024;73.254;2024-03-06T08:22:48;18.00;;;8.90;;
84676;SDS011;74901;55.024;73.254;2024-03-06T08:25:17;25.25;;;9.35;;
84676;SDS011;74901;55.024;73.254;2024-03-06T08:27:45;27.10;;;10.25;;
84676;SDS011;74901;55.024;73.254;2024-03-06T08:30:14;23.83;;;9.23;;
84676;SDS011;74901;55.024;73.254;2024-03-06T08:32:45;22.38;;;8.30;;
84676;SDS011;74901;55.024;73.254;2024-03-06T08:35:14;24.63;;;10.10;;
84676;SDS011;74901;55.024;73.254;2024-03-06T08:37:44;19.67;;;8.95;;
84676;SDS011;74901;55.024;73.254;2024-03-06T08:40:13;20.88;;;8.80;;
84676;SDS011;74901;55.024;73.254;2024-03-06T08:42:43;24.60;;;9.15;;
84676;SDS011;74901;55.024;73.254;2024-03-06T08:45:13;23.23;;;10.05;;
84676;SDS011;74901;55.024;73.254;2024-03-06T08:50:13;25.83;;;9.80;;
84676;SDS011;74901;55.024;73.254;2024-03-06T08:52:42;21.35;;;9.40;;
84676;SDS011;74901;55.024;73.254;2024-03-06T08:55:11;24.38;;;9.77;;
84676;SDS011;74901;55.024;73.254;2024-03-06T08:57:38;32.60;;;10.73;;
84676;SDS011;74901;55.024;73.254;2024-03-06T09:00:07;22.90;;;9.38;;
84676;SDS011;74901;55.024;73.254;2024-03-06T09:02:37;27.27;;;9.30;;
84676;SDS011;74901;55.024;73.254;2024-03-06T09:07:38;24.70;;;9.98;;
84676;SDS011;74901;55.024;73.254;2024-03-06T09:12:36;21.10;;;8.63;;
84676;SDS011;74901;55.024;73.254;2024-03-06T09:15:06;25.63;;;9.60;;
84676;SDS011;74901;55.024;73.254;2024-03-06T09:17:34;28.55;;;10.50;;
84676;SDS011;74901;55.024;73.254;2024-03-06T09:20:04;24.13;;;9.13;;
84676;SDS011;74901;55.024;73.254;2024-03-06T09:22:38;20.13;;;8.25;;
84676;SDS011;74901;55.024;73.254;2024-03-06T09:25:07;23.95;;;9.60;;
84676;SDS011;74901;55.024;73.254;2024-03-06T09:27:38;21.70;;;8.18;;
84676;SDS011;74901;55.024;73.254;2024-03-06T09:32:37;25.13;;;9.50;;
84676;SDS011;74901;55.024;73.254;2024-03-06T09:35:08;23.65;;;9.85;;
84676;SDS011;74901;55.024;73.254;2024-03-06T09:37:38;20.50;;;8.23;;
84676;SDS011;74901;55.024;73.254;2024-03-06T09:40:09;25.10;;;8.15;;
84676;SDS011;74901;55.024;73.254;2024-03-06T09:42:39;23.23;;;9.43;;
84676;SDS011;74901;55.024;73.254;2024-03-06T09:45:08;22.35;;;9.25;;
84676;SDS011;74901;55.024;73.254;2024-03-06T09:47:37;25.42;;;8.90;;
84676;SDS011;74901;55.024;73.254;2024-03-06T09:50:08;19.55;;;8.10;;
84676;SDS011;74901;55.024;73.254;2024-03-06T09:52:39;24.88;;;8.18;;
84676;SDS011;74901;55.024;73.254;2024-03-06T09:55:12;22.63;;;9.50;;
84676;SDS011;74901;55.024;73.254;2024-03-06T09:57:41;21.77;;;8.27;;
84676;SDS011;74901;55.024;73.254;2024-03-06T10:00:11;21.90;;;9.00;;
84676;SDS011;74901;55.024;73.254;2024-03-06T10:02:44;20.23;;;9.25;;
84676;SDS011;74901;55.024;73.254;2024-03-06T10:05:22;22.10;;;9.00;;
84676;SDS011;74901;55.024;73.254;2024-03-06T10:07:53;23.08;;;9.20;;
84676;SDS011;74901;55.024;73.254;2024-03-06T10:10:22;21.30;;;8.70;;
84676;SDS011;74901;55.024;73.254;2024-03-06T10:12:51;24.60;;;9.43;;
84676;SDS011;74901;55.024;73.254;2024-03-06T10:15:20;26.95;;;10.02;;
84676;SDS011;74901;55.024;73.254;2024-03-06T10:17:49;20.85;;;8.90;;
84676;SDS011;74901;55.024;73.254;2024-03-06T10:20:18;23.38;;;9.60;;
84676;SDS011;74901;55.024;73.254;2024-03-06T10:22:49;23.85;;;8.32;;
84676;SDS011;74901;55.024;73.254;2024-03-06T10:25:20;28.27;;;10.93;;
84676;SDS011;74901;55.024;73.254;2024-03-06T10:28:04;30.88;;;9.65;;
84676;SDS011;74901;55.024;73.254;2024-03-06T10:30:34;26.23;;;10.25;;
84676;SDS011;74901;55.024;73.254;2024-03-06T10:33:04;24.13;;;9.98;;
84676;SDS011;74901;55.024;73.254;2024-03-06T10:35:34;30.95;;;9.32;;
84676;SDS011;74901;55.024;73.254;2024-03-06T10:38:04;26.58;;;10.55;;
84676;SDS011;74901;55.024;73.254;2024-03-06T10:40:35;26.13;;;10.50;;
84676;SDS011;74901;55.024;73.254;2024-03-06T10:43:05;25.55;;;9.20;;
84676;SDS011;74901;55.024;73.254;2024-03-06T10:45:39;26.02;;;10.20;;
84676;SDS011;74901;55.024;73.254;2024-03-06T10:48:11;23.30;;;9.10;;
84676;SDS011;74901;55.024;73.254;2024-03-06T10:50:42;25.77;;;9.80;;
84676;SDS011;74901;55.024;73.254;2024-03-06T10:53:12;23.83;;;9.40;;
84676;SDS011;74901;55.024;73.254;2024-03-06T10:55:44;28.13;;;9.93;;
84676;SDS011;74901;55.024;73.254;2024-03-06T10:58:13;27.45;;;9.38;;
84676;SDS011;74901;55.024;73.254;2024-03-06T11:00:45;21.20;;;8.63;;
84676;SDS011;74901;55.024;73.254;2024-03-06T11:03:15;30.38;;;9.77;;
84676;SDS011;74901;55.024;73.254;2024-03-06T11:08:14;31.80;;;10.48;;
84676;SDS011;74901;55.024;73.254;2024-03-06T11:10:45;27.23;;;8.68;;
84676;SDS011;74901;55.024;73.254;2024-03-06T11:13:23;27.23;;;10.88;;
84676;SDS011;74901;55.024;73.254;2024-03-06T11:15:53;26.23;;;10.40;;
84676;SDS011;74901;55.024;73.254;2024-03-06T11:18:40;28.40;;;9.48;;
84676;SDS011;74901;55.024;73.254;2024-03-06T11:21:29;22.83;;;8.80;;
84676;SDS011;74901;55.024;73.254;2024-03-06T11:24:15;26.23;;;8.85;;
84676;SDS011;74901;55.024;73.254;2024-03-06T11:26:56;21.27;;;8.25;;
84676;SDS011;74901;55.024;73.254;2024-03-06T11:29:27;25.20;;;8.98;;
84676;SDS011;74901;55.024;73.254;2024-03-06T11:32:01;27.67;;;10.85;;
84676;SDS011;74901;55.024;73.254;2024-03-06T11:34:36;22.67;;;8.85;;
84676;SDS011;74901;55.024;73.254;2024-03-06T11:37:05;28.55;;;10.52;;
84676;SDS011;74901;55.024;73.254;2024-03-06T11:39:35;28.73;;;9.50;;
84676;SDS011;74901;55.024;73.254;2024-03-06T11:42:06;22.60;;;9.35;;
84676;SDS011;74901;55.024;73.254;2024-03-06T11:44:36;24.77;;;10.20;;
84676;SDS011;74901;55.024;73.254;2024-03-06T11:47:05;27.73;;;9.85;;
84676;SDS011;74901;55.024;73.254;2024-03-06T11:49:36;25.30;;;10.65;;
84676;SDS011;74901;55.024;73.254;2024-03-06T11:52:07;24.83;;;10.23;;
84676;SDS011;74901;55.024;73.254;2024-03-06T11:54:38;26.15;;;9.27;;
84676;SDS011;74901;55.024;73.254;2024-03-06T11:57:09;23.10;;;9.50;;
84676;SDS011;74901;55.024;73.254;2024-03-06T11:59:42;23.15;;;10.27;;
84676;SDS011;74901;55.024;73.254;2024-03-06T12:02:11;26.75;;;10.32;;
84676;SDS011;74901;55.024;73.254;2024-03-06T12:04:40;29.23;;;10.98;;
84676;SDS011;74901;55.024;73.254;2024-03-06T12:07:09;27.55;;;9.98;;
84676;SDS011;74901;55.024;73.254;2024-03-06T12:09:39;25.73;;;10.20;;
84676;SDS011;74901;55.024;73.254;2024-03-06T12:12:10;25.35;;;10.07;;
84676;SDS011;74901;55.024;73.254;2024-03-06T12:14:39;26.15;;;10.57;;
84676;SDS011;74901;55.024;73.254;2024-03-06T12:17:11;30.20;;;10.93;;
84676;SDS011;74901;55.024;73.254;2024-03-06T12:19:42;29.45;;;10.93;;
84676;SDS011;74901;55.024;73.254;2024-03-06T12:22:11;32.88;;;10.85;;
84676;SDS011;74901;55.024;73.254;2024-03-06T12:24:40;31.20;;;11.68;;
84676;SDS011;74901;55.024;73.254;2024-03-06T12:27:10;28.33;;;10.50;;
84676;SDS011;74901;55.024;73.254;2024-03-06T12:29:40;30.17;;;9.70;;
84676;SDS011;74901;55.024;73.254;2024-03-06T12:32:15;27.05;;;10.60;;
84676;SDS011;74901;55.024;73.254;2024-03-06T12:37:28;29.92;;;9.98;;
84676;SDS011;74901;55.024;73.254;2024-03-06T12:39:58;33.30;;;10.77;;
84676;SDS011;74901;55.024;73.254;2024-03-06T12:42:30;49.17;;;15.52;;
84676;SDS011;74901;55.024;73.254;2024-03-06T12:44:59;38.92;;;13.00;;
84676;SDS011;74901;55.024;73.254;2024-03-06T12:49:57;31.80;;;10.50;;
84676;SDS011;74901;55.024;73.254;2024-03-06T12:52:26;26.27;;;10.23;;
84676;SDS011;74901;55.024;73.254;2024-03-06T12:54:55;25.02;;;11.02;;
84676;SDS011;74901;55.024;73.254;2024-03-06T12:57:24;26.67;;;10.75;;
84676;SDS011;74901;55.024;73.254;2024-03-06T12:59:55;29.85;;;11.10;;
84676;SDS011;74901;55.024;73.254;2024-03-06T13:02:24;27.23;;;10.23;;
84676;SDS011;74901;55.024;73.254;2024-03-06T13:04:53;28.95;;;11.60;;
84676;SDS011;74901;55.024;73.254;2024-03-06T13:07:22;25.25;;;11.63;;
84676;SDS011;74901;55.024;73.254;2024-03-06T13:09:53;32.10;;;12.05;;
84676;SDS011;74901;55.024;73.254;2024-03-06T13:12:21;41.08;;;13.35;;
84676;SDS011;74901;55.024;73.254;2024-03-06T13:14:50;37.72;;;14.75;;
84676;SDS011;74901;55.024;73.254;2024-03-06T13:17:21;35.83;;;12.93;;
84676;SDS011;74901;55.024;73.254;2024-03-06T13:19:50;34.85;;;13.48;;
84676;SDS011;74901;55.024;73.254;2024-03-06T13:22:19;32.67;;;13.02;;
84676;SDS011;74901;55.024;73.254;2024-03-06T13:24:48;31.90;;;12.15;;
84676;SDS011;74901;55.024;73.254;2024-03-06T13:27:17;35.45;;;13.95;;
84676;SDS011;74901;55.024;73.254;2024-03-06T13:29:45;36.03;;;13.48;;
84676;SDS011;74901;55.024;73.254;2024-03-06T13:32:14;32.63;;;13.23;;
84676;SDS011;74901;55.024;73.254;2024-03-06T13:34:44;42.42;;;15.23;;
84676;SDS011;74901;55.024;73.254;2024-03-06T13:37:13;36.42;;;15.00;;
84676;SDS011;74901;55.024;73.254;2024-03-06T13:39:42;50.08;;;19.25;;
84676;SDS011;74901;55.024;73.254;2024-03-06T13:42:11;44.15;;;17.45;;
84676;SDS011;74901;55.024;73.254;2024-03-06T13:44:40;47.38;;;20.33;;
84676;SDS011;74901;55.024;73.254;2024-03-06T13:47:14;49.25;;;21.65;;
84676;SDS011;74901;55.024;73.254;2024-03-06T13:49:45;56.20;;;23.80;;
84676;SDS011;74901;55.024;73.254;2024-03-06T13:52:14;54.65;;;21.63;;
84676;SDS011;74901;55.024;73.254;2024-03-06T13:54:46;59.28;;;22.88;;
84676;SDS011;74901;55.024;73.254;2024-03-06T13:57:15;52.15;;;22.85;;
84676;SDS011;74901;55.024;73.254;2024-03-06T13:59:44;58.25;;;21.90;;
84676;SDS011;74901;55.024;73.254;2024-03-06T14:02:12;56.20;;;22.02;;
84676;SDS011;74901;55.024;73.254;2024-03-06T14:04:42;51.42;;;21.02;;
84676;SDS011;74901;55.024;73.254;2024-03-06T14:07:12;61.17;;;24.00;;
84676;SDS011;74901;55.024;73.254;2024-03-06T14:09:41;63.22;;;22.30;;
84676;SDS011;74901;55.024;73.254;2024-03-06T14:12:10;54.85;;;19.05;;
84676;SDS011;74901;55.024;73.254;2024-03-06T14:14:39;63.75;;;23.20;;
84676;SDS011;74901;55.024;73.254;2024-03-06T14:17:07;48.03;;;16.90;;
84676;SDS011;74901;55.024;73.254;2024-03-06T14:19:36;106.60;;;44.33;;
84676;SDS011;74901;55.024;73.254;2024-03-06T14:22:06;64.65;;;25.67;;
84676;SDS011;74901;55.024;73.254;2024-03-06T14:27:05;58.63;;;22.95;;
84676;SDS011;74901;55.024;73.254;2024-03-06T14:29:34;63.30;;;21.42;;
84676;SDS011;74901;55.024;73.254;2024-03-06T14:32:03;60.15;;;20.38;;
84676;SDS011;74901;55.024;73.254;2024-03-06T14:34:32;35.85;;;14.20;;
84676;SDS011;74901;55.024;73.254;2024-03-06T14:37:00;40.67;;;14.88;;
84676;SDS011;74901;55.024;73.254;2024-03-06T14:39:29;37.67;;;13.85;;
84676;SDS011;74901;55.024;73.254;2024-03-06T14:42:00;31.70;;;14.05;;
84676;SDS011;74901;55.024;73.254;2024-03-06T14:44:32;39.28;;;15.05;;
84676;SDS011;74901;55.024;73.254;2024-03-06T14:47:01;52.33;;;17.60;;
84676;SDS011;74901;55.024;73.254;2024-03-06T14:49:31;30.48;;;13.15;;
84676;SDS011;74901;55.024;73.254;2024-03-06T14:52:00;45.63;;;18.35;;
84676;SDS011;74901;55.024;73.254;2024-03-06T14:54:29;36.47;;;17.10;;
84676;SDS011;74901;55.024;73.254;2024-03-06T14:57:00;33.00;;;14.43;;
84676;SDS011;74901;55.024;73.254;2024-03-06T14:59:29;35.90;;;14.57;;
84676;SDS011;74901;55.024;73.254;2024-03-06T15:01:57;30.83;;;13.95;;
84676;SDS011;74901;55.024;73.254;2024-03-06T15:04:26;46.50;;;17.45;;
84676;SDS011;74901;55.024;73.254;2024-03-06T15:06:55;45.63;;;17.65;;